Patton Village, California
Current Conditions -  °F | °C
As of 12:35 AM on Friday 28 Nov 2014 (Local Time) from KRTS Reporting Station
Clear Clear  
Wind Chill: 45°   Ceiling: Unl
Heat Index: 48°   Visibility: 10mi
Dew Point:   Wind: 8mph
Humidity: 20%   Direction: 270°W
Pressure: 30.09"   Gusts: NA
Location:  40.3266°N, 120.122°W
Report Text: KRTS 280835Z AUTO 27007KT 10SM CLR 09/M13 A3009 RMK AO2
Loading
Personal Weather Stations






























Interactive Weather Map New forecast layout! Learn more

10-Day Weather Forecast

Advertisements
Track Severe Weather on mobile